createdAt,value
2022-12-19T00:00:37.846Z,76.03
2022-12-19T00:03:06.225Z,77.67
2022-12-19T00:05:39.787Z,87.67
2022-12-19T00:08:16.970Z,75.40
2022-12-19T00:10:54.882Z,80.00
2022-12-19T00:13:23.332Z,74.00
2022-12-19T00:15:51.678Z,74.27
2022-12-19T00:18:20.332Z,73.17
2022-12-19T00:20:58.853Z,71.00
2022-12-19T00:23:28.910Z,85.20
2022-12-19T00:25:57.470Z,72.30
2022-12-19T00:28:27.164Z,71.17
2022-12-19T00:30:55.422Z,77.33
2022-12-19T00:33:24.943Z,72.47
2022-12-19T00:36:00.421Z,72.90
2022-12-19T00:38:30.008Z,70.07
2022-12-19T00:41:08.505Z,72.85
2022-12-19T00:43:37.592Z,72.67
2022-12-19T00:46:09.800Z,74.73
2022-12-19T00:48:38.264Z,74.87
2022-12-19T00:51:11.911Z,72.90
2022-12-19T00:53:44.189Z,81.07
2022-12-19T00:56:16.381Z,77.67
2022-12-19T00:58:47.252Z,79.73
2022-12-19T01:01:20.371Z,73.33
2022-12-19T01:04:19.137Z,74.67
2022-12-19T01:06:39.535Z,70.53
2022-12-19T01:09:09.874Z,71.30
2022-12-19T01:11:55.747Z,79.72
2022-12-19T01:14:24.784Z,75.83
2022-12-19T01:16:53.532Z,68.57
2022-12-19T01:19:21.929Z,75.93
2022-12-19T01:21:51.603Z,69.70
2022-12-19T01:24:20.701Z,70.88
2022-12-19T01:26:51.236Z,70.73
2022-12-19T01:29:19.643Z,71.13
2022-12-19T01:31:49.397Z,65.15
2022-12-19T01:34:17.775Z,64.57
2022-12-19T01:36:46.093Z,67.83
2022-12-19T01:39:15.749Z,64.60
2022-12-19T01:41:44.068Z,68.87
2022-12-19T01:44:12.379Z,66.00
2022-12-19T01:46:45.350Z,60.00
2022-12-19T01:49:17.907Z,59.67
2022-12-19T01:51:52.311Z,64.63
2022-12-19T01:54:27.089Z,58.35
2022-12-19T01:57:00.076Z,61.60
2022-12-19T01:59:35.467Z,60.45
2022-12-19T02:02:11.802Z,64.67
2022-12-19T02:04:41.977Z,63.23
2022-12-19T02:07:15.746Z,61.60
2022-12-19T02:09:51.923Z,67.80
2022-12-19T02:12:30.855Z,65.17
2022-12-19T02:15:03.112Z,61.83
2022-12-19T02:17:48.793Z,60.57
2022-12-19T02:21:04.314Z,62.47
2022-12-19T02:24:13.374Z,60.40
2022-12-19T02:27:15.602Z,58.67
2022-12-19T02:30:10.349Z,53.28
2022-12-19T02:32:57.812Z,54.85
2022-12-19T02:35:36.336Z,54.10
2022-12-19T02:38:16.584Z,48.27
2022-12-19T02:40:55.561Z,47.43
2022-12-19T02:43:29.221Z,44.60
2022-12-19T02:45:58.978Z,43.67
2022-12-19T02:48:29.648Z,45.72
2022-12-19T02:50:59.651Z,38.28
2022-12-19T02:53:27.980Z,38.58
2022-12-19T02:56:26.449Z,36.50
2022-12-19T02:59:19.878Z,39.33
2022-12-19T03:01:54.351Z,36.65
2022-12-19T03:04:38.908Z,37.55
2022-12-19T03:07:15.869Z,34.05
2022-12-19T03:09:53.157Z,30.50
2022-12-19T03:12:28.243Z,32.45
2022-12-19T03:14:59.829Z,35.17
2022-12-19T03:17:29.283Z,31.45
2022-12-19T03:19:59.836Z,28.48
2022-12-19T03:24:56.306Z,24.05
2022-12-19T03:27:30.562Z,25.30
2022-12-19T03:30:06.113Z,23.67
2022-12-19T03:32:37.968Z,25.33
2022-12-19T03:35:14.129Z,21.60
2022-12-19T03:37:44.103Z,21.60
2022-12-19T03:40:18.185Z,21.83
2022-12-19T03:43:06.744Z,22.92
2022-12-19T03:45:46.872Z,24.77
2022-12-19T03:48:21.392Z,22.33
2022-12-19T03:51:10.767Z,23.88
2022-12-19T03:53:49.619Z,22.10
2022-12-19T03:56:27.541Z,21.92
2022-12-19T03:59:02.672Z,22.25
2022-12-19T04:01:35.392Z,23.08
2022-12-19T04:04:06.293Z,22.25
2022-12-19T04:06:37.304Z,22.80
2022-12-19T04:09:06.710Z,21.85
2022-12-19T04:11:42.740Z,22.23
2022-12-19T04:14:17.145Z,21.63
2022-12-19T04:16:51.909Z,21.30
2022-12-19T04:19:27.249Z,22.13
2022-12-19T04:22:05.997Z,23.00
2022-12-19T04:24:39.113Z,20.58
2022-12-19T04:27:09.824Z,20.15
2022-12-19T04:32:09.524Z,17.73
2022-12-19T04:34:41.507Z,18.10
2022-12-19T04:37:14.203Z,17.90
2022-12-19T04:39:42.658Z,20.60
2022-12-19T04:42:10.939Z,21.60
2022-12-19T04:44:39.342Z,20.25
2022-12-19T04:47:07.626Z,20.45
2022-12-19T04:49:35.953Z,22.80
2022-12-19T04:52:04.372Z,22.70
2022-12-19T04:54:35.207Z,24.27
2022-12-19T04:57:03.543Z,24.90
2022-12-19T04:59:32.480Z,23.60
2022-12-19T05:02:01.033Z,24.42
2022-12-19T05:04:29.431Z,23.98
2022-12-19T05:06:57.743Z,22.33
2022-12-19T05:09:27.297Z,28.52
2022-12-19T05:11:56.953Z,23.60
2022-12-19T05:14:25.482Z,26.75
2022-12-19T05:16:57.344Z,26.25
2022-12-19T05:19:29.137Z,25.77
2022-12-19T05:21:57.464Z,26.55
2022-12-19T05:24:25.891Z,24.95
2022-12-19T05:26:54.228Z,24.92
2022-12-19T05:29:24.075Z,26.38
2022-12-19T05:31:52.345Z,24.38
2022-12-19T05:34:20.875Z,25.27
2022-12-19T05:36:49.246Z,22.45
2022-12-19T05:39:17.785Z,23.77
2022-12-19T05:41:48.943Z,25.35
2022-12-19T05:44:18.504Z,23.67
2022-12-19T05:46:48.273Z,27.48
2022-12-19T05:49:16.838Z,28.23
2022-12-19T05:51:48.188Z,24.92
2022-12-19T05:54:16.785Z,25.58
2022-12-19T05:56:45.051Z,24.38
2022-12-19T05:59:13.436Z,26.13
2022-12-19T06:01:41.717Z,25.17
2022-12-19T06:04:11.515Z,24.05
2022-12-19T06:06:39.775Z,29.30
2022-12-19T06:09:08.262Z,23.08
2022-12-19T06:11:36.513Z,24.95
2022-12-19T06:14:04.887Z,23.73
2022-12-19T06:16:33.168Z,24.05
2022-12-19T06:19:01.557Z,26.00
2022-12-19T06:21:31.227Z,25.50
2022-12-19T06:23:59.569Z,24.80
2022-12-19T06:26:27.937Z,23.80
2022-12-19T06:28:57.229Z,25.40
2022-12-19T06:31:26.930Z,24.35
2022-12-19T06:33:56.854Z,20.95
2022-12-19T06:36:27.914Z,29.13
2022-12-19T06:38:59.155Z,22.45
2022-12-19T06:41:45.350Z,21.38
2022-12-19T06:44:16.204Z,19.92
2022-12-19T06:46:45.488Z,22.88
2022-12-19T06:49:14.069Z,20.23
2022-12-19T06:51:42.766Z,20.33
2022-12-19T06:54:13.277Z,23.83
2022-12-19T06:56:43.910Z,19.63
2022-12-19T06:59:15.948Z,19.95
2022-12-19T07:01:58.601Z,20.77
2022-12-19T07:04:32.638Z,19.35
2022-12-19T07:07:01.831Z,20.17
2022-12-19T07:09:33.896Z,20.27
2022-12-19T07:12:03.165Z,17.17
2022-12-19T07:14:31.544Z,16.70
2022-12-19T07:17:02.110Z,20.30
2022-12-19T07:19:32.218Z,21.40
2022-12-19T07:22:02.085Z,20.77
2022-12-19T07:24:32.161Z,16.50
2022-12-19T07:27:00.569Z,20.27
2022-12-19T07:29:28.913Z,16.63
2022-12-19T07:31:57.300Z,15.88
2022-12-19T07:34:25.674Z,19.45
2022-12-19T07:36:53.930Z,16.27
2022-12-19T07:39:22.924Z,18.98
2022-12-19T07:41:52.574Z,19.75
2022-12-19T07:44:31.492Z,18.25
2022-12-19T07:46:59.750Z,19.42
2022-12-19T07:49:27.989Z,17.13
2022-12-19T07:51:56.375Z,17.25
2022-12-19T07:54:24.678Z,17.90
2022-12-19T07:56:54.439Z,18.40
2022-12-19T07:59:28.912Z,15.67
2022-12-19T08:01:58.945Z,14.82
2022-12-19T08:04:27.711Z,16.23
2022-12-19T08:06:56.114Z,17.02
2022-12-19T08:09:27.647Z,15.77
2022-12-19T08:11:57.782Z,16.70
2022-12-19T08:14:26.134Z,16.98
2022-12-19T08:17:19.702Z,20.50
2022-12-19T08:19:42.898Z,19.60
2022-12-19T08:22:11.242Z,15.75
2022-12-19T08:24:39.543Z,16.42
2022-12-19T08:27:09.240Z,18.88
2022-12-19T08:29:37.623Z,18.50
2022-12-19T08:32:06.305Z,15.63
2022-12-19T08:34:34.797Z,16.15
2022-12-19T08:37:03.054Z,17.02
2022-12-19T08:39:31.441Z,17.08
2022-12-19T08:41:59.838Z,19.92
2022-12-19T08:44:29.538Z,15.55
2022-12-19T08:46:57.904Z,16.13
2022-12-19T08:49:26.548Z,15.23
2022-12-19T08:51:54.865Z,14.75
2022-12-19T08:54:23.213Z,17.20
2022-12-19T08:56:51.982Z,18.85
2022-12-19T08:59:25.579Z,15.75
2022-12-19T09:02:01.687Z,15.65
2022-12-19T09:06:01.889Z,15.75
2022-12-19T09:07:19.703Z,15.25
2022-12-19T09:09:48.058Z,15.30
2022-12-19T09:12:17.488Z,14.48
2022-12-19T09:14:46.267Z,16.38
2022-12-19T09:17:16.042Z,14.52
2022-12-19T09:19:47.638Z,17.08
2022-12-19T09:22:17.711Z,14.02
2022-12-19T09:24:49.124Z,13.32
2022-12-19T09:27:17.555Z,15.20
2022-12-19T09:29:46.045Z,16.48
2022-12-19T09:32:15.753Z,13.77
2022-12-19T09:34:44.053Z,14.40
2022-12-19T09:37:16.676Z,16.92
2022-12-19T09:39:46.862Z,15.35
2022-12-19T09:42:30.036Z,15.45
2022-12-19T09:45:31.252Z,16.25
2022-12-19T09:48:05.758Z,14.73
2022-12-19T09:50:47.772Z,13.85
2022-12-19T09:53:23.121Z,12.90
2022-12-19T09:55:54.900Z,17.13
2022-12-19T09:58:37.209Z,17.50
2022-12-19T10:01:17.138Z,13.68
2022-12-19T10:03:55.166Z,15.63
2022-12-19T10:07:07.007Z,13.25
2022-12-19T10:10:54.710Z,13.00
2022-12-19T10:12:43.075Z,15.02
2022-12-19T10:15:22.438Z,12.88
2022-12-19T10:18:16.627Z,14.10
2022-12-19T10:20:51.452Z,12.02
2022-12-19T10:23:50.461Z,14.80
2022-12-19T10:26:21.853Z,13.98
2022-12-19T10:29:30.067Z,13.18
2022-12-19T10:32:05.297Z,11.18
2022-12-19T10:34:39.812Z,13.15
2022-12-19T10:37:25.729Z,13.40
2022-12-19T10:40:11.241Z,12.07
2022-12-19T10:42:51.917Z,13.57
2022-12-19T10:45:23.371Z,13.10
2022-12-19T10:47:57.404Z,12.55
2022-12-19T10:50:29.510Z,13.18
2022-12-19T10:53:11.188Z,13.43
2022-12-19T10:55:44.919Z,11.90
2022-12-19T10:58:22.857Z,10.68
2022-12-19T11:01:06.939Z,11.10
2022-12-19T11:03:36.170Z,10.75
2022-12-19T11:06:06.249Z,17.77
2022-12-19T11:08:38.082Z,12.18
2022-12-19T11:13:11.905Z,11.30
2022-12-19T11:19:17.854Z,10.40
2022-12-19T11:20:39.179Z,12.90
2022-12-19T11:29:18.200Z,13.57
2022-12-19T11:29:34.804Z,11.73
2022-12-19T11:29:34.919Z,11.45
2022-12-19T11:30:59.587Z,10.95
2022-12-19T11:32:35.825Z,13.07
2022-12-19T11:34:51.433Z,15.85
2022-12-19T11:37:26.851Z,13.55
2022-12-19T11:40:01.001Z,13.38
2022-12-19T11:42:36.545Z,11.50
2022-12-19T11:45:14.503Z,14.82
2022-12-19T11:47:49.765Z,11.57
2022-12-19T11:50:24.173Z,13.40
2022-12-19T11:53:05.139Z,14.30
2022-12-19T11:55:45.073Z,14.30
2022-12-19T11:58:15.638Z,13.38
2022-12-19T12:00:54.247Z,13.18
2022-12-19T12:04:01.908Z,16.27
2022-12-19T12:06:35.646Z,14.77
2022-12-19T12:11:42.620Z,11.65
2022-12-19T12:19:08.584Z,11.75
2022-12-19T12:26:37.387Z,16.38
2022-12-19T12:31:00.316Z,12.95
2022-12-19T12:31:08.448Z,12.70
2022-12-19T12:31:39.471Z,12.95
2022-12-19T12:31:45.110Z,14.50
2022-12-19T12:31:49.683Z,14.57
2022-12-19T12:35:38.337Z,11.95
2022-12-19T12:39:44.088Z,12.65
2022-12-19T12:42:29.128Z,10.82
2022-12-19T12:45:00.287Z,12.77
2022-12-19T12:47:30.313Z,11.50
2022-12-19T12:50:02.955Z,11.90
2022-12-19T12:52:37.154Z,14.18
2022-12-19T12:55:13.816Z,9.75
2022-12-19T12:57:42.341Z,12.50
2022-12-19T13:00:24.842Z,11.43
2022-12-19T13:03:03.587Z,14.13
2022-12-19T13:05:41.521Z,12.75
2022-12-19T13:08:38.203Z,10.82
2022-12-19T13:11:12.200Z,12.25
2022-12-19T13:13:53.215Z,12.77
2022-12-19T13:16:52.907Z,11.80
2022-12-19T13:19:28.846Z,10.10
2022-12-19T13:22:37.954Z,11.13
2022-12-19T13:25:52.536Z,9.25
2022-12-19T13:28:41.742Z,10.48
2022-12-19T13:31:23.298Z,9.43
2022-12-19T13:34:25.125Z,16.75
2022-12-19T13:39:47.982Z,13.18
2022-12-19T13:40:18.463Z,10.30
2022-12-19T13:43:18.858Z,9.77
2022-12-19T13:45:53.853Z,13.93
2022-12-19T13:48:32.109Z,9.90
2022-12-19T13:51:07.147Z,10.07
2022-12-19T13:53:36.770Z,8.65
2022-12-19T13:56:12.905Z,9.18
2022-12-19T13:58:48.741Z,9.73
2022-12-19T14:01:23.270Z,11.32
2022-12-19T14:03:55.473Z,11.02
2022-12-19T14:06:29.040Z,8.38
2022-12-19T14:11:26.423Z,11.23
2022-12-19T14:13:35.644Z,9.45
2022-12-19T14:15:12.916Z,10.23
2022-12-19T14:17:48.793Z,10.40
2022-12-19T14:22:02.299Z,8.45
2022-12-19T14:23:12.362Z,10.30
2022-12-19T14:28:18.423Z,8.27
2022-12-19T14:28:44.597Z,12.88
2022-12-19T14:31:19.018Z,11.95
2022-12-19T14:36:41.718Z,7.80
2022-12-19T14:39:18.676Z,8.65
2022-12-19T14:42:20.447Z,9.63
2022-12-19T14:54:15.169Z,10.25
2022-12-19T14:54:15.865Z,8.60
2022-12-19T14:54:28.660Z,9.70
2022-12-19T14:57:28.971Z,11.02
2022-12-19T15:01:09.123Z,9.38
2022-12-19T15:03:22.913Z,9.90
2022-12-19T15:05:51.927Z,8.02
2022-12-19T15:09:50.576Z,9.95
2022-12-19T15:12:06.198Z,12.07
2022-12-19T15:14:53.787Z,11.48
2022-12-19T15:17:28.420Z,9.88
2022-12-19T15:19:56.846Z,10.10
2022-12-19T15:22:25.136Z,10.65
2022-12-19T15:24:54.263Z,9.30
2022-12-19T15:27:24.293Z,10.35
2022-12-19T15:29:53.057Z,9.73
2022-12-19T15:32:21.479Z,7.53
2022-12-19T15:34:51.644Z,12.45
2022-12-19T15:37:20.460Z,9.05
2022-12-19T15:39:49.009Z,11.82
2022-12-19T15:42:24.559Z,11.32
2022-12-19T15:44:55.763Z,7.68
2022-12-19T15:47:32.927Z,12.98
2022-12-19T15:50:06.702Z,8.82
2022-12-19T15:52:35.057Z,14.73
2022-12-19T15:55:03.350Z,9.40
2022-12-19T15:57:37.798Z,10.80
2022-12-19T16:00:12.865Z,12.52
2022-12-19T16:05:30.185Z,9.27
2022-12-19T16:07:58.989Z,11.20
2022-12-19T16:10:27.856Z,11.55
2022-12-19T16:12:58.536Z,8.75
2022-12-19T16:20:30.575Z,10.95
2022-12-19T16:22:59.377Z,11.73
2022-12-19T16:25:35.039Z,9.80
2022-12-19T16:28:07.326Z,9.00
2022-12-19T16:30:36.591Z,10.35
2022-12-19T16:33:18.674Z,11.27
2022-12-19T16:36:04.661Z,9.20
2022-12-19T16:38:34.349Z,8.98
2022-12-19T16:41:02.958Z,11.13
2022-12-19T16:43:36.945Z,9.05
2022-12-19T16:46:08.687Z,9.45
2022-12-19T16:48:37.085Z,9.07
2022-12-19T16:51:05.660Z,11.05
2022-12-19T16:53:34.537Z,8.45
2022-12-19T16:56:04.751Z,10.30
2022-12-19T16:58:39.618Z,10.32
2022-12-19T17:01:11.858Z,9.02
2022-12-19T17:03:42.787Z,11.73
2022-12-19T17:06:13.893Z,10.07
2022-12-19T17:08:42.458Z,10.02
2022-12-19T17:11:20.390Z,9.57
2022-12-19T17:13:53.237Z,10.27
2022-12-19T17:16:21.719Z,11.82
2022-12-19T17:18:50.222Z,10.40
2022-12-19T17:21:21.565Z,10.63
2022-12-19T17:23:50.301Z,10.18
2022-12-19T17:26:19.243Z,9.85
2022-12-19T17:28:49.377Z,9.48
2022-12-19T17:31:23.771Z,9.15
2022-12-19T17:33:53.036Z,8.73
2022-12-19T17:36:26.091Z,12.73
2022-12-19T17:38:56.115Z,10.70
2022-12-19T17:41:25.497Z,10.57
2022-12-19T17:43:55.230Z,10.00
2022-12-19T17:46:25.661Z,10.05
2022-12-19T17:48:55.239Z,10.27
2022-12-19T17:51:24.725Z,10.90
2022-12-19T17:53:53.045Z,12.38
2022-12-19T17:56:22.216Z,9.95
2022-12-19T17:58:50.752Z,11.52
2022-12-19T18:01:24.336Z,11.93
2022-12-19T18:03:56.105Z,11.38
2022-12-19T18:06:24.460Z,9.48
2022-12-19T18:08:52.801Z,8.70
2022-12-19T18:11:23.997Z,13.13
2022-12-19T18:13:53.562Z,10.25
2022-12-19T18:16:27.364Z,8.65
2022-12-19T18:18:56.444Z,10.43
2022-12-19T18:21:25.089Z,9.73
2022-12-19T18:23:53.617Z,13.73
2022-12-19T18:26:22.279Z,10.73
2022-12-19T18:28:50.602Z,11.48
2022-12-19T18:31:25.499Z,9.52
2022-12-19T18:34:02.038Z,9.73
2022-12-19T18:36:41.187Z,9.43
2022-12-19T18:39:21.035Z,9.10
2022-12-19T18:41:50.174Z,10.10
2022-12-19T18:44:18.734Z,12.43
2022-12-19T18:46:50.813Z,11.77
2022-12-19T18:49:19.892Z,10.15
2022-12-19T18:51:50.150Z,9.18
2022-12-19T18:54:22.511Z,9.57
2022-12-19T18:56:55.427Z,9.00
2022-12-19T18:59:23.965Z,10.40
2022-12-19T19:01:55.588Z,10.30
2022-12-19T19:04:24.126Z,12.15
2022-12-19T19:06:55.146Z,12.00
2022-12-19T19:09:24.110Z,10.20
2022-12-19T19:12:34.293Z,13.55
2022-12-19T19:15:03.116Z,11.32
2022-12-19T19:17:32.770Z,10.02
2022-12-19T19:20:01.417Z,8.63
2022-12-19T19:22:33.991Z,12.63
2022-12-19T19:25:02.530Z,10.20
2022-12-19T19:27:30.967Z,11.18
2022-12-19T19:30:00.251Z,10.63
2022-12-19T19:32:28.833Z,10.57
2022-12-19T19:34:59.613Z,12.15
2022-12-19T19:39:57.268Z,10.23
2022-12-19T19:42:25.586Z,16.17
2022-12-19T19:44:54.025Z,12.88
2022-12-19T19:47:27.173Z,11.50
2022-12-19T19:49:58.325Z,10.20
2022-12-19T19:52:26.691Z,11.75
2022-12-19T19:54:55.108Z,10.95
2022-12-19T19:57:23.781Z,10.05
2022-12-19T19:59:52.559Z,11.48
2022-12-19T20:02:24.280Z,10.98
2022-12-19T20:04:52.794Z,13.50
2022-12-19T20:07:25.522Z,10.73
2022-12-19T20:09:54.786Z,10.95
2022-12-19T20:12:26.258Z,11.23
2022-12-19T20:14:54.706Z,11.75
2022-12-19T20:17:23.117Z,10.13
2022-12-19T20:19:51.612Z,9.77
2022-12-19T20:22:20.006Z,10.98
2022-12-19T20:24:49.766Z,12.43
2022-12-19T20:27:20.855Z,11.23
2022-12-19T20:29:49.151Z,12.23
2022-12-19T20:32:17.631Z,11.88
2022-12-19T20:34:46.715Z,11.30
2022-12-19T20:37:16.045Z,10.88
2022-12-19T20:39:44.864Z,10.95
2022-12-19T20:42:14.672Z,13.32
2022-12-19T20:44:43.014Z,10.93
2022-12-19T20:47:11.313Z,13.23
2022-12-19T20:49:39.973Z,13.02
2022-12-19T20:52:08.388Z,13.38
2022-12-19T20:54:36.976Z,11.52
2022-12-19T20:57:05.703Z,10.75
2022-12-19T20:59:35.482Z,12.95
2022-12-19T21:02:03.936Z,11.87
2022-12-19T21:04:32.567Z,16.08
2022-12-19T21:07:01.063Z,11.07
2022-12-19T21:09:29.519Z,11.98
2022-12-19T21:11:58.164Z,13.98
2022-12-19T21:14:26.457Z,11.30
2022-12-19T21:16:56.235Z,12.00
2022-12-19T21:19:24.719Z,11.10
2022-12-19T21:21:53.437Z,9.05
2022-12-19T21:24:21.996Z,11.07
2022-12-19T21:26:57.670Z,11.45
2022-12-19T21:29:26.816Z,13.65
2022-12-19T21:31:56.559Z,12.55
2022-12-19T21:34:25.186Z,11.67
2022-12-19T21:36:53.578Z,17.67
2022-12-19T21:39:25.538Z,14.05
2022-12-19T21:41:53.984Z,12.98
2022-12-19T21:44:22.273Z,13.75
2022-12-19T21:46:50.932Z,12.00
2022-12-19T21:49:21.095Z,12.57
2022-12-19T21:51:49.516Z,17.35
2022-12-19T21:54:17.942Z,14.77
2022-12-19T21:56:49.160Z,11.70
2022-12-19T21:59:20.583Z,11.25
2022-12-19T22:01:49.189Z,13.25
2022-12-19T22:04:22.041Z,12.07
2022-12-19T22:06:52.008Z,12.98
2022-12-19T22:09:23.419Z,14.07
2022-12-19T22:11:51.978Z,12.93
2022-12-19T22:14:22.655Z,13.48
2022-12-19T22:19:21.805Z,11.15
2022-12-19T22:21:50.305Z,14.82
2022-12-19T22:24:20.086Z,14.02
2022-12-19T22:26:48.614Z,15.13
2022-12-19T22:29:20.501Z,8.98
2022-12-19T22:31:50.652Z,13.57
2022-12-19T22:34:22.544Z,12.10
2022-12-19T22:36:52.953Z,12.35
2022-12-19T22:39:23.063Z,12.07
2022-12-19T22:41:52.086Z,13.80
2022-12-19T22:44:23.172Z,8.38
2022-12-19T22:46:52.296Z,10.73
2022-12-19T22:49:21.965Z,11.00
2022-12-19T22:51:50.381Z,11.43
2022-12-19T22:54:18.769Z,11.63
2022-12-19T22:56:47.256Z,9.48
2022-12-19T22:59:15.580Z,8.50
2022-12-19T23:01:44.909Z,13.73
2022-12-19T23:04:15.741Z,8.48
2022-12-19T23:06:45.821Z,10.13
2022-12-19T23:09:17.709Z,8.73
2022-12-19T23:11:50.107Z,8.90
2022-12-19T23:14:20.906Z,8.95
2022-12-19T23:19:18.639Z,10.25
2022-12-19T23:21:48.581Z,9.25
2022-12-19T23:24:17.137Z,10.32
2022-12-19T23:26:45.836Z,9.23
2022-12-19T23:29:16.462Z,10.73
2022-12-19T23:31:47.322Z,11.45
2022-12-19T23:34:16.909Z,8.60
2022-12-19T23:39:35.758Z,8.63
2022-12-19T23:42:04.225Z,8.45
2022-12-19T23:44:32.680Z,8.57
2022-12-19T23:47:03.409Z,10.65
2022-12-19T23:49:33.431Z,12.60
2022-12-19T23:52:03.255Z,9.10
2022-12-19T23:54:31.595Z,8.37
2022-12-19T23:56:59.850Z,9.63
2022-12-19T23:59:28.485Z,7.97
